Sumisemaru No.5 — JE3162 — position and weather

sailwx.info

Track history (hours):
 
Tides and Currents Weather Stations Pressure Air Temp Water Temp Dewpoint Dewpoint Depression Visibility Wind Speed Wind Dir Waves Ship Positions

Sumisemaru No.5

Last reported at 2015-Mar-27 06:33 UTC. Time now 2015-Mar-29 03:11 UTC.
Position N 35°40' E 140°56'.

Length 96 m; draft 5.4 m.

Type: Cargo ship. MMSI: 431700423.

Date/timePositionNaut miles runAvg speedWind from/ knotsBaromVisibWave heightAir tempDewpointWater temp
2015-Mar-27 06:33N 35°40' E 140°56'1414.2
2015-Mar-27 05:33N 35°28' E 140°46'5913.3
2015-Mar-27 01:07N 34°55' E 139°46'712.5
2015-Mar-27 00:33N 35°01' E 139°43'1313.5
2015-Mar-26 23:33N 35°14' E 139°46'1211.5
2015-Mar-26 22:33N 35°26' E 139°45'1211.6
2015-Mar-26 21:33N 35°28' E 139°59'0 0.3
2015-Mar-26 20:30N 35°28' E 139°59'0 0.0
2015-Mar-26 19:24N 35°28' E 139°59'0 0.1
2015-Mar-26 18:30N 35°28' E 139°59'0 0.0
2015-Mar-26 17:18N 35°28' E 139°59'0 0.0
2015-Mar-26 16:30N 35°28' E 139°59'0 0.0
2015-Mar-26 15:30N 35°28' E 139°59'0 0.0
2015-Mar-26 14:30N 35°28' E 139°59'0 0.0
2015-Mar-26 13:30N 35°28' E 139°59'0 0.0
2015-Mar-26 11:24N 35°28' E 139°59'0 0.0
2015-Mar-26 10:30N 35°28' E 139°59'0 0.0
2015-Mar-26 09:24N 35°28' E 139°59'0 0.1
2015-Mar-26 08:30N 35°28' E 139°59'0 0.0
2015-Mar-26 07:24N 35°28' E 139°59'0 0.0
2015-Mar-26 06:30N 35°28' E 139°59'0 0.0
2015-Mar-26 05:18N 35°28' E 139°59'0 0.0
2015-Mar-26 04:24N 35°28' E 139°59'0 0.0
2015-Mar-26 03:30N 35°28' E 139°59'0 0.0
2015-Mar-26 02:24N 35°28' E 139°59'0 0.0
2015-Mar-26 01:06N 35°28' E 139°59'0 0.1
2015-Mar-26 00:30N 35°28' E 139°59'0 0.0
2015-Mar-25 23:30N 35°28' E 139°59'2 2.0
2015-Mar-25 22:33N 35°29' E 139°57'1 0.6
2015-Mar-25 21:33N 35°29' E 139°57'0 0.0
2015-Mar-25 20:27N 35°29' E 139°57'0 0.0
2015-Mar-25 19:33N 35°29' E 139°57'0 0.0
2015-Mar-25 18:33N 35°29' E 139°57'0 0.0
2015-Mar-25 17:21N 35°29' E 139°57'0 0.0
2015-Mar-25 16:33N 35°29' E 139°57'0 0.0
2015-Mar-25 15:33N 35°29' E 139°57'0 0.0
2015-Mar-25 14:33N 35°29' E 139°57'0 0.0
2015-Mar-25 13:33N 35°29' E 139°57'0 0.1
2015-Mar-25 12:33N 35°30' E 139°57'1110.6
2015-Mar-25 11:33N 35°26' E 139°44'4 4.0
2015-Mar-25 10:30N 35°29' E 139°40'0 0.0
2015-Mar-25 09:30N 35°29' E 139°40'0 0.0
2015-Mar-25 08:30N 35°29' E 139°40'0 0.0
2015-Mar-25 07:33N 35°29' E 139°40'0 0.0
2015-Mar-25 06:33N 35°29' E 139°40'0 0.0
2015-Mar-25 05:33N 35°29' E 139°40'0 0.0
2015-Mar-25 04:33N 35°29' E 139°40'0 0.0
2015-Mar-25 03:33N 35°29' E 139°40'1 0.8
2015-Mar-25 02:33N 35°28' E 139°40'10 9.6
2015-Mar-25 01:33N 35°19' E 139°44'1010.5
2015-Mar-25 00:33N 35°08' E 139°45'1211.7
2015-Mar-24 23:33N 34°59' E 139°37'6211.5
2015-Mar-24 18:07N 34°28' E 138°31'  
Track history (hours):
 
Tides and Currents Weather Stations Pressure Air Temp Water Temp Dewpoint Dewpoint Depression Visibility Wind Speed Wind Dir Waves Ship Positions

Sumisemaru No.5

Last reported at 2015-Mar-27 06:33 UTC. Time now 2015-Mar-29 03:11 UTC.
Position N 35°40' E 140°56'.

Length 96 m; draft 5.4 m.

Type: Cargo ship. MMSI: 431700423.

Date/timePositionNaut miles runAvg speedWind from/ knotsBaromVisibWave heightAir tempDewpointWater temp
2015-Mar-27 06:33N 35°40' E 140°56'1414.2
2015-Mar-27 05:33N 35°28' E 140°46'5913.3
2015-Mar-27 01:07N 34°55' E 139°46'712.5
2015-Mar-27 00:33N 35°01' E 139°43'1313.5
2015-Mar-26 23:33N 35°14' E 139°46'1211.5
2015-Mar-26 22:33N 35°26' E 139°45'1211.6
2015-Mar-26 21:33N 35°28' E 139°59'0 0.3
2015-Mar-26 20:30N 35°28' E 139°59'0 0.0
2015-Mar-26 19:24N 35°28' E 139°59'0 0.1
2015-Mar-26 18:30N 35°28' E 139°59'0 0.0
2015-Mar-26 17:18N 35°28' E 139°59'0 0.0
2015-Mar-26 16:30N 35°28' E 139°59'0 0.0
2015-Mar-26 15:30N 35°28' E 139°59'0 0.0
2015-Mar-26 14:30N 35°28' E 139°59'0 0.0
2015-Mar-26 13:30N 35°28' E 139°59'0 0.0
2015-Mar-26 11:24N 35°28' E 139°59'0 0.0
2015-Mar-26 10:30N 35°28' E 139°59'0 0.0
2015-Mar-26 09:24N 35°28' E 139°59'0 0.1
2015-Mar-26 08:30N 35°28' E 139°59'0 0.0
2015-Mar-26 07:24N 35°28' E 139°59'0 0.0
2015-Mar-26 06:30N 35°28' E 139°59'0 0.0
2015-Mar-26 05:18N 35°28' E 139°59'0 0.0
2015-Mar-26 04:24N 35°28' E 139°59'0 0.0
2015-Mar-26 03:30N 35°28' E 139°59'0 0.0
2015-Mar-26 02:24N 35°28' E 139°59'0 0.0
2015-Mar-26 01:06N 35°28' E 139°59'0 0.1
2015-Mar-26 00:30N 35°28' E 139°59'0 0.0
2015-Mar-25 23:30N 35°28' E 139°59'2 2.0
2015-Mar-25 22:33N 35°29' E 139°57'1 0.6
2015-Mar-25 21:33N 35°29' E 139°57'0 0.0
2015-Mar-25 20:27N 35°29' E 139°57'0 0.0
2015-Mar-25 19:33N 35°29' E 139°57'0 0.0
2015-Mar-25 18:33N 35°29' E 139°57'0 0.0
2015-Mar-25 17:21N 35°29' E 139°57'0 0.0
2015-Mar-25 16:33N 35°29' E 139°57'0 0.0
2015-Mar-25 15:33N 35°29' E 139°57'0 0.0
2015-Mar-25 14:33N 35°29' E 139°57'0 0.0
2015-Mar-25 13:33N 35°29' E 139°57'0 0.1
2015-Mar-25 12:33N 35°30' E 139°57'1110.6
2015-Mar-25 11:33N 35°26' E 139°44'4 4.0
2015-Mar-25 10:30N 35°29' E 139°40'0 0.0
2015-Mar-25 09:30N 35°29' E 139°40'0 0.0
2015-Mar-25 08:30N 35°29' E 139°40'0 0.0
2015-Mar-25 07:33N 35°29' E 139°40'0 0.0
2015-Mar-25 06:33N 35°29' E 139°40'0 0.0
2015-Mar-25 05:33N 35°29' E 139°40'0 0.0
2015-Mar-25 04:33N 35°29' E 139°40'0 0.0
2015-Mar-25 03:33N 35°29' E 139°40'1 0.8
2015-Mar-25 02:33N 35°28' E 139°40'10 9.6
2015-Mar-25 01:33N 35°19' E 139°44'1010.5
2015-Mar-25 00:33N 35°08' E 139°45'1211.7
2015-Mar-24 23:33N 34°59' E 139°37'6211.5
2015-Mar-24 18:07N 34°28' E 138°31'  

Dump ship's entire track history